createdAt,value
2022-09-01T00:00:01.274Z,23.10
2022-09-01T00:00:18.755Z,23.10
2022-09-01T00:00:30.877Z,23.00
2022-09-01T00:00:51.291Z,23.00
2022-09-01T00:01:03.364Z,23.10
2022-09-01T00:01:21.737Z,23.00
2022-09-01T00:01:34.873Z,23.00
2022-09-01T00:01:48.917Z,23.00
2022-09-01T00:02:06.793Z,23.00
2022-09-01T00:02:18.851Z,23.00
2022-09-01T00:02:30.842Z,23.00
2022-09-01T00:02:43.525Z,23.00
2022-09-01T00:02:56.218Z,23.00
2022-09-01T00:03:10.962Z,23.00
2022-09-01T00:03:25.586Z,23.00
2022-09-01T00:03:38.573Z,23.00
2022-09-01T00:03:52.980Z,23.00
2022-09-01T00:04:05.018Z,23.00
2022-09-01T00:04:20.239Z,23.00
2022-09-01T00:04:32.198Z,23.00
2022-09-01T00:04:45.313Z,23.00
2022-09-01T00:05:00.594Z,23.00
2022-09-01T00:05:13.265Z,23.00
2022-09-01T00:05:25.330Z,23.00
2022-09-01T00:05:37.377Z,23.00
2022-09-01T00:05:55.028Z,23.10
2022-09-01T00:06:10.109Z,23.00
2022-09-01T00:06:23.927Z,23.00
2022-09-01T00:06:36.052Z,23.00
2022-09-01T00:06:48.676Z,23.00
2022-09-01T00:07:00.692Z,23.00
2022-09-01T00:07:13.632Z,23.00
2022-09-01T00:07:32.342Z,23.00
2022-09-01T00:07:44.154Z,23.00
2022-09-01T00:07:55.861Z,23.00
2022-09-01T00:08:07.692Z,23.00
2022-09-01T00:08:19.590Z,23.00
2022-09-01T00:08:31.487Z,23.00
2022-09-01T00:08:43.295Z,23.00
2022-09-01T00:08:56.278Z,23.00
2022-09-01T00:09:10.221Z,23.00
2022-09-01T00:09:22.715Z,23.00
2022-09-01T00:09:34.925Z,23.00
2022-09-01T00:09:46.701Z,23.00
2022-09-01T00:10:01.530Z,23.00
2022-09-01T00:10:13.593Z,23.00
2022-09-01T00:10:25.629Z,23.00
2022-09-01T00:10:37.640Z,23.00
2022-09-01T00:10:49.629Z,23.00
2022-09-01T00:11:01.423Z,23.00
2022-09-01T00:11:13.185Z,23.00
2022-09-01T00:11:25.908Z,23.00
2022-09-01T00:11:40.851Z,23.00
2022-09-01T00:11:53.796Z,23.00
2022-09-01T00:12:07.113Z,23.00
2022-09-01T00:12:18.881Z,23.00
2022-09-01T00:12:30.765Z,23.00
2022-09-01T00:12:43.216Z,23.00
2022-09-01T00:12:54.907Z,23.00
2022-09-01T00:13:07.275Z,23.00
2022-09-01T00:13:19.026Z,23.00
2022-09-01T00:13:33.262Z,23.00
2022-09-01T00:13:45.073Z,22.90
2022-09-01T00:13:57.090Z,23.00
2022-09-01T00:14:30.282Z,23.00
2022-09-01T00:14:41.754Z,23.00
2022-09-01T00:14:53.580Z,22.90
2022-09-01T00:15:06.398Z,22.90
2022-09-01T00:15:18.280Z,22.90
2022-09-01T00:15:30.086Z,22.90
2022-09-01T00:15:41.912Z,22.90
2022-09-01T00:15:54.615Z,22.90
2022-09-01T00:16:06.678Z,22.90
2022-09-01T00:16:19.628Z,22.80
2022-09-01T00:16:31.428Z,22.80
2022-09-01T00:16:43.221Z,22.80
2022-09-01T00:16:55.124Z,22.80
2022-09-01T00:17:08.394Z,22.90
2022-09-01T00:17:20.410Z,22.90
2022-09-01T00:17:33.031Z,22.90
2022-09-01T00:17:44.832Z,22.80
2022-09-01T00:17:56.500Z,22.80
2022-09-01T00:18:08.260Z,22.80
2022-09-01T00:18:20.221Z,22.80
2022-09-01T00:18:32.728Z,22.80
2022-09-01T00:18:46.753Z,22.80
2022-09-01T00:18:58.625Z,22.80
2022-09-01T00:19:10.397Z,22.80
2022-09-01T00:19:23.702Z,22.80
2022-09-01T00:19:35.798Z,22.80
2022-09-01T00:19:47.651Z,22.80
2022-09-01T00:19:59.356Z,22.80
2022-09-01T00:20:11.221Z,22.80
2022-09-01T00:20:22.957Z,22.80
2022-09-01T00:20:34.729Z,22.80
2022-09-01T00:20:46.456Z,22.80
2022-09-01T00:20:59.554Z,22.80
2022-09-01T00:21:11.535Z,22.80
2022-09-01T00:21:26.267Z,22.80
2022-09-01T00:21:40.612Z,22.80
2022-09-01T00:21:52.396Z,22.80
2022-09-01T00:22:04.393Z,22.80
2022-09-01T00:22:16.245Z,22.80
2022-09-01T00:22:28.044Z,22.80
2022-09-01T00:22:39.778Z,22.80
2022-09-01T00:22:51.475Z,22.80
2022-09-01T00:23:03.229Z,22.70
2022-09-01T00:23:14.989Z,22.70
2022-09-01T00:23:27.783Z,22.70
2022-09-01T00:23:39.671Z,22.80
2022-09-01T00:23:51.437Z,22.80
2022-09-01T00:24:03.518Z,22.80
2022-09-01T00:24:16.167Z,22.80
2022-09-01T00:24:27.936Z,22.80
2022-09-01T00:24:39.644Z,22.80
2022-09-01T00:24:51.433Z,22.80
2022-09-01T00:25:03.681Z,22.80
2022-09-01T00:25:15.598Z,22.80
2022-09-01T00:25:27.861Z,22.80
2022-09-01T00:25:40.236Z,22.70
2022-09-01T00:25:52.215Z,22.70
2022-09-01T00:26:04.296Z,22.70
2022-09-01T00:26:16.033Z,22.80
2022-09-01T00:26:28.071Z,22.70
2022-09-01T00:26:39.962Z,22.70
2022-09-01T00:26:51.723Z,22.70
2022-09-01T00:27:03.607Z,22.70
2022-09-01T00:27:15.384Z,22.70
2022-09-01T00:27:30.704Z,22.70
2022-09-01T00:27:43.139Z,22.70
2022-09-01T00:27:59.230Z,22.70
2022-09-01T00:28:10.981Z,22.70
2022-09-01T00:28:22.761Z,22.80
2022-09-01T00:28:41.018Z,22.70
2022-09-01T00:28:53.103Z,22.70
2022-09-01T00:29:05.169Z,22.70
2022-09-01T00:29:16.871Z,22.70
2022-09-01T00:29:28.558Z,22.70
2022-09-01T00:29:43.232Z,22.70
2022-09-01T00:29:56.167Z,22.70
2022-09-01T00:30:08.574Z,22.70
2022-09-01T00:30:20.722Z,22.70
2022-09-01T00:30:32.492Z,22.70
2022-09-01T00:30:44.252Z,22.70
2022-09-01T00:30:56.210Z,22.70
2022-09-01T00:31:08.189Z,22.70
2022-09-01T00:31:20.303Z,22.70
2022-09-01T00:31:32.359Z,22.70
2022-09-01T00:31:44.588Z,22.60
2022-09-01T00:31:56.588Z,22.70
2022-09-01T00:32:08.373Z,22.60
2022-09-01T00:32:20.101Z,22.70
2022-09-01T00:32:31.776Z,22.70
2022-09-01T00:32:46.876Z,22.70
2022-09-01T00:32:58.897Z,22.70
2022-09-01T00:33:10.580Z,22.70
2022-09-01T00:33:22.245Z,22.60
2022-09-01T00:33:34.754Z,22.60
2022-09-01T00:33:47.369Z,22.60
2022-09-01T00:33:59.160Z,22.70
2022-09-01T00:34:10.943Z,22.70
2022-09-01T00:34:23.033Z,22.70
2022-09-01T00:34:34.777Z,22.70
2022-09-01T00:34:46.543Z,22.70
2022-09-01T00:34:58.245Z,22.70
2022-09-01T00:35:10.189Z,22.60
2022-09-01T00:35:22.068Z,22.70
2022-09-01T00:35:37.122Z,22.60
2022-09-01T00:35:49.177Z,22.60
2022-09-01T00:36:01.383Z,22.60
2022-09-01T00:36:13.096Z,22.70
2022-09-01T00:36:24.786Z,22.70
2022-09-01T00:36:36.490Z,22.70
2022-09-01T00:36:48.208Z,22.70
2022-09-01T00:36:59.977Z,22.70
2022-09-01T00:37:11.713Z,22.70
2022-09-01T00:37:23.538Z,22.70
2022-09-01T00:37:35.241Z,22.70
2022-09-01T00:37:46.940Z,22.70
2022-09-01T00:37:58.607Z,22.70
2022-09-01T00:38:12.887Z,22.70
2022-09-01T00:38:24.589Z,22.70
2022-09-01T00:38:36.259Z,22.70
2022-09-01T00:38:47.977Z,22.60
2022-09-01T00:38:59.956Z,22.60
2022-09-01T00:39:11.644Z,22.70
2022-09-01T00:39:23.358Z,22.60
2022-09-01T00:39:35.052Z,22.70
2022-09-01T00:39:46.753Z,22.60
2022-09-01T00:39:58.429Z,22.60
2022-09-01T00:40:11.696Z,22.60
2022-09-01T00:40:23.484Z,22.60
2022-09-01T00:40:35.525Z,22.60
2022-09-01T00:40:47.342Z,22.70
2022-09-01T00:41:00.743Z,22.60
2022-09-01T00:41:12.976Z,22.60
2022-09-01T00:41:26.510Z,22.60
2022-09-01T00:41:39.024Z,22.60
2022-09-01T00:41:51.302Z,22.60
2022-09-01T00:42:03.279Z,22.60
2022-09-01T00:42:14.965Z,22.60
2022-09-01T00:42:27.085Z,22.60
2022-09-01T00:42:39.845Z,22.60
2022-09-01T00:42:53.730Z,22.60
2022-09-01T00:43:40.632Z,22.60
2022-09-01T00:44:05.021Z,22.60
2022-09-01T00:44:19.010Z,22.60
2022-09-01T00:44:31.893Z,22.60
2022-09-01T00:44:43.652Z,22.60
2022-09-01T00:44:57.334Z,22.60
2022-09-01T00:45:10.315Z,22.60
2022-09-01T00:45:22.724Z,22.60
2022-09-01T00:45:34.900Z,22.50
2022-09-01T00:45:46.722Z,22.60
2022-09-01T00:45:58.477Z,22.60
2022-09-01T00:46:14.838Z,22.60
2022-09-01T00:46:32.462Z,22.60
2022-09-01T00:46:51.078Z,22.60
2022-09-01T00:47:07.219Z,22.50
2022-09-01T00:47:19.287Z,22.60
2022-09-01T00:47:31.056Z,22.50
2022-09-01T00:47:42.965Z,22.50
2022-09-01T00:47:54.738Z,22.50
2022-09-01T00:48:06.528Z,22.50
2022-09-01T00:48:20.363Z,22.50
2022-09-01T00:48:32.540Z,22.50
2022-09-01T00:48:44.932Z,22.50
2022-09-01T00:49:03.385Z,22.60
2022-09-01T00:49:49.830Z,22.60
2022-09-01T00:50:01.908Z,22.50
2022-09-01T00:50:14.461Z,22.50
2022-09-01T00:50:26.224Z,22.50
2022-09-01T00:50:39.037Z,22.60
2022-09-01T00:50:50.819Z,22.50
2022-09-01T00:51:06.862Z,22.50
2022-09-01T00:51:18.603Z,22.50
2022-09-01T00:51:30.590Z,22.50
2022-09-01T00:51:44.840Z,22.50
2022-09-01T00:52:30.372Z,22.60
2022-09-01T00:52:48.345Z,22.50
2022-09-01T00:53:00.729Z,22.60
2022-09-01T00:53:12.403Z,22.60
2022-09-01T00:53:26.308Z,22.60
2022-09-01T00:53:39.354Z,22.60
2022-09-01T00:53:51.197Z,22.60
2022-09-01T00:54:03.286Z,22.60
2022-09-01T00:54:18.855Z,22.60
2022-09-01T00:54:33.301Z,22.60
2022-09-01T00:54:46.421Z,22.60
2022-09-01T00:55:04.670Z,22.60
2022-09-01T00:55:18.967Z,22.60
2022-09-01T00:55:32.657Z,22.60
2022-09-01T00:55:44.728Z,22.60
2022-09-01T00:55:56.449Z,22.60
2022-09-01T00:56:08.209Z,22.60
2022-09-01T00:56:19.993Z,22.60
2022-09-01T00:56:31.850Z,22.60
2022-09-01T00:56:46.380Z,22.60
2022-09-01T00:56:58.691Z,22.60
2022-09-01T00:57:10.536Z,22.60
2022-09-01T00:57:22.229Z,22.60
2022-09-01T00:57:33.992Z,22.60
2022-09-01T00:57:45.740Z,22.60
2022-09-01T00:57:58.139Z,22.60
2022-09-01T00:58:20.013Z,22.60
2022-09-01T00:58:32.038Z,22.60
2022-09-01T00:58:43.974Z,22.60
2022-09-01T00:58:55.698Z,22.50
2022-09-01T00:59:07.714Z,22.50
2022-09-01T00:59:19.874Z,22.50
2022-09-01T00:59:31.622Z,22.50
2022-09-01T00:59:50.019Z,22.50
2022-09-01T01:00:11.413Z,22.50
2022-09-01T01:00:25.556Z,22.50
2022-09-01T01:00:43.586Z,22.60
2022-09-01T01:00:55.294Z,22.60
2022-09-01T01:01:07.618Z,22.50
2022-09-01T01:01:19.545Z,22.50
2022-09-01T01:01:31.356Z,22.50
2022-09-01T01:01:43.252Z,22.50
2022-09-01T01:01:58.121Z,22.50
2022-09-01T01:02:11.268Z,22.50
2022-09-01T01:02:23.318Z,22.50
2022-09-01T01:02:36.030Z,22.50
2022-09-01T01:02:50.595Z,22.50
2022-09-01T01:03:02.459Z,22.50
2022-09-01T01:03:14.444Z,22.50
2022-09-01T01:03:26.232Z,22.50
2022-09-01T01:03:39.336Z,22.50
2022-09-01T01:03:51.101Z,22.50
2022-09-01T01:04:04.287Z,22.50
2022-09-01T01:04:16.159Z,22.50
2022-09-01T01:04:27.912Z,22.50
2022-09-01T01:04:43.756Z,22.50
2022-09-01T01:04:59.393Z,22.50
2022-09-01T01:05:12.629Z,22.50
2022-09-01T01:05:33.078Z,22.50
2022-09-01T01:05:54.043Z,22.50
2022-09-01T01:06:08.312Z,22.50
2022-09-01T01:06:23.719Z,22.50
2022-09-01T01:06:35.496Z,22.50
2022-09-01T01:06:50.505Z,22.50
2022-09-01T01:07:02.783Z,22.50
2022-09-01T01:07:15.645Z,22.50
2022-09-01T01:07:27.463Z,22.50
2022-09-01T01:07:47.240Z,22.50
2022-09-01T01:08:01.393Z,22.50
2022-09-01T01:08:13.153Z,22.50
2022-09-01T01:08:36.354Z,22.50
2022-09-01T01:08:57.794Z,22.50
2022-09-01T01:09:09.477Z,22.50
2022-09-01T01:09:21.224Z,22.50
2022-09-01T01:09:34.640Z,22.50
2022-09-01T01:09:46.400Z,22.50
2022-09-01T01:09:58.092Z,22.50
2022-09-01T01:10:13.076Z,22.50
2022-09-01T01:10:26.390Z,22.50
2022-09-01T01:10:40.079Z,22.50
2022-09-01T01:10:51.752Z,22.50
2022-09-01T01:11:10.190Z,22.50
2022-09-01T01:11:21.878Z,22.50
2022-09-01T01:11:33.562Z,22.50
2022-09-01T01:11:47.441Z,22.50
2022-09-01T01:12:00.200Z,22.50
2022-09-01T01:12:18.404Z,22.50
2022-09-01T01:12:30.838Z,22.50
2022-09-01T01:12:43.869Z,22.50
2022-09-01T01:12:56.259Z,22.50
2022-09-01T01:13:13.928Z,22.50
2022-09-01T01:13:26.054Z,22.40
2022-09-01T01:13:51.643Z,22.50
2022-09-01T01:14:12.456Z,22.50
2022-09-01T01:14:24.157Z,22.40
2022-09-01T01:14:37.149Z,22.40
2022-09-01T01:14:50.437Z,22.40
2022-09-01T01:15:02.729Z,22.40
2022-09-01T01:15:14.580Z,22.40
2022-09-01T01:15:26.367Z,22.40
2022-09-01T01:15:39.076Z,22.40
2022-09-01T01:15:50.761Z,22.40
2022-09-01T01:16:03.336Z,22.40
2022-09-01T01:16:15.985Z,22.40
2022-09-01T01:16:28.526Z,22.40
2022-09-01T01:16:44.192Z,22.40
2022-09-01T01:16:56.058Z,22.40
2022-09-01T01:17:08.091Z,22.40
2022-09-01T01:17:21.025Z,22.40
2022-09-01T01:17:32.875Z,22.40
2022-09-01T01:17:44.644Z,22.30
2022-09-01T01:17:56.605Z,22.40
2022-09-01T01:18:08.313Z,22.40
2022-09-01T01:18:23.353Z,22.40
2022-09-01T01:18:35.464Z,22.40
2022-09-01T01:18:47.361Z,22.40
2022-09-01T01:18:59.064Z,22.40
2022-09-01T01:19:57.757Z,22.40
2022-09-01T01:20:32.699Z,22.40
2022-09-01T01:21:03.278Z,22.40
2022-09-01T01:21:36.739Z,22.40
2022-09-01T01:22:06.880Z,22.30
2022-09-01T01:22:46.412Z,22.30
2022-09-01T01:23:13.724Z,22.30
2022-09-01T01:23:31.063Z,22.30
2022-09-01T01:23:48.732Z,22.30
2022-09-01T01:24:21.966Z,22.30
2022-09-01T01:24:34.299Z,22.30
2022-09-01T01:24:47.974Z,22.30
2022-09-01T01:25:01.765Z,22.30
2022-09-01T01:25:13.624Z,22.30
2022-09-01T01:25:25.632Z,22.30
2022-09-01T01:25:40.483Z,22.30
2022-09-01T01:25:58.648Z,22.30
2022-09-01T01:26:11.137Z,22.30
2022-09-01T01:26:23.530Z,22.30
2022-09-01T01:26:35.665Z,22.30
2022-09-01T01:26:47.477Z,22.30
2022-09-01T01:27:02.140Z,22.30
2022-09-01T01:27:14.196Z,22.30
2022-09-01T01:27:25.961Z,22.30
2022-09-01T01:27:42.820Z,22.30
2022-09-01T01:28:10.656Z,22.30
2022-09-01T01:28:30.988Z,22.30
2022-09-01T01:28:44.163Z,22.40
2022-09-01T01:28:56.025Z,22.40
2022-09-01T01:29:10.034Z,22.40
2022-09-01T01:29:22.047Z,22.30
2022-09-01T01:29:38.775Z,22.40
2022-09-01T01:29:52.934Z,22.30
2022-09-01T01:30:09.332Z,22.30
2022-09-01T01:30:21.242Z,22.30
2022-09-01T01:30:37.160Z,22.30
2022-09-01T01:30:52.334Z,22.30
2022-09-01T01:31:12.669Z,22.30
2022-09-01T01:31:24.688Z,22.30
2022-09-01T01:31:36.626Z,22.30
2022-09-01T01:31:49.658Z,22.30
2022-09-01T01:32:02.128Z,22.30
2022-09-01T01:32:13.809Z,22.30
2022-09-01T01:32:26.470Z,22.30
2022-09-01T01:32:47.620Z,22.30
2022-09-01T01:32:59.892Z,22.30
2022-09-01T01:33:11.735Z,22.30
2022-09-01T01:33:30.272Z,22.30
2022-09-01T01:33:47.507Z,22.20
2022-09-01T01:34:00.819Z,22.30
2022-09-01T01:34:12.610Z,22.20
2022-09-01T01:34:24.687Z,22.30
2022-09-01T01:34:36.394Z,22.20
2022-09-01T01:34:48.802Z,22.20
2022-09-01T01:35:03.688Z,22.20
2022-09-01T01:35:16.457Z,22.20
2022-09-01T01:35:28.366Z,22.20
2022-09-01T01:35:41.980Z,22.20
2022-09-01T01:35:55.327Z,22.20
2022-09-01T01:36:07.940Z,22.20
2022-09-01T01:36:31.142Z,22.20
2022-09-01T01:36:42.846Z,22.20
2022-09-01T01:36:55.203Z,22.20
2022-09-01T01:37:06.917Z,22.20
2022-09-01T01:37:19.068Z,22.20
2022-09-01T01:37:30.776Z,22.20
2022-09-01T01:37:45.800Z,22.20
2022-09-01T01:37:57.680Z,22.20
2022-09-01T01:38:09.669Z,22.20
2022-09-01T01:38:22.928Z,22.20
2022-09-01T01:38:35.968Z,22.20
2022-09-01T01:38:48.998Z,22.20
2022-09-01T01:39:03.665Z,22.20
2022-09-01T01:39:21.464Z,22.20
2022-09-01T01:39:33.402Z,22.20
2022-09-01T01:39:45.484Z,22.20
2022-09-01T01:39:57.693Z,22.20
2022-09-01T01:40:15.643Z,22.20
2022-09-01T01:40:29.106Z,22.20
2022-09-01T01:40:41.475Z,22.20
2022-09-01T01:40:53.788Z,22.10
2022-09-01T01:41:06.386Z,22.10
2022-09-01T01:41:19.901Z,22.20
2022-09-01T01:41:32.840Z,22.10
2022-09-01T01:41:48.748Z,22.10
2022-09-01T01:42:00.451Z,22.10
2022-09-01T01:42:12.331Z,22.10
2022-09-01T01:42:26.817Z,22.10
2022-09-01T01:42:38.677Z,22.10
2022-09-01T01:42:52.056Z,22.10
2022-09-01T01:43:04.233Z,22.10
2022-09-01T01:43:20.028Z,22.10
2022-09-01T01:43:31.785Z,22.10
2022-09-01T01:43:43.591Z,22.10
2022-09-01T01:43:58.264Z,22.10
2022-09-01T01:44:11.938Z,22.00
2022-09-01T01:44:27.806Z,22.00
2022-09-01T01:44:42.587Z,22.00
2022-09-01T01:44:54.643Z,22.00
2022-09-01T01:45:08.099Z,22.00
2022-09-01T01:45:21.263Z,22.00
2022-09-01T01:45:33.243Z,22.00
2022-09-01T01:45:46.137Z,22.00
2022-09-01T01:46:02.836Z,22.00
2022-09-01T01:46:14.733Z,22.00
2022-09-01T01:46:26.616Z,22.00
2022-09-01T01:46:42.955Z,22.00
2022-09-01T01:46:54.800Z,22.00
2022-09-01T01:47:08.447Z,22.00
2022-09-01T01:47:20.259Z,22.00
2022-09-01T01:47:32.101Z,22.00
2022-09-01T01:47:47.411Z,22.00
2022-09-01T01:47:59.139Z,22.00
2022-09-01T01:48:10.866Z,22.00
2022-09-01T01:48:25.490Z,22.00
2022-09-01T01:48:39.736Z,22.00
2022-09-01T01:48:52.478Z,22.00
2022-09-01T01:49:04.504Z,21.90
2022-09-01T01:49:19.882Z,21.90
2022-09-01T01:49:31.848Z,21.90
2022-09-01T01:49:43.873Z,21.90
2022-09-01T01:49:57.428Z,21.90
2022-09-01T01:50:09.622Z,21.90
2022-09-01T01:50:33.425Z,21.90
2022-09-01T01:50:49.273Z,21.90
2022-09-01T01:51:01.650Z,21.90
2022-09-01T01:51:13.896Z,21.90
2022-09-01T01:51:27.653Z,21.90
2022-09-01T01:51:39.745Z,21.90
2022-09-01T01:51:57.864Z,21.90
2022-09-01T01:52:12.004Z,21.80
2022-09-01T01:52:26.890Z,21.90
2022-09-01T01:52:38.666Z,21.90
2022-09-01T01:52:59.987Z,21.80
2022-09-01T01:53:13.721Z,21.80
2022-09-01T01:53:25.467Z,21.80
2022-09-01T01:53:37.813Z,21.80
2022-09-01T01:53:52.582Z,21.80
2022-09-01T01:54:05.656Z,21.90
2022-09-01T01:54:19.920Z,21.80
2022-09-01T01:54:32.525Z,21.80
2022-09-01T01:54:46.153Z,21.80
2022-09-01T01:55:01.071Z,21.80
2022-09-01T01:55:19.305Z,21.80
2022-09-01T01:55:31.114Z,21.80
2022-09-01T01:55:43.791Z,21.80
2022-09-01T01:55:56.100Z,21.80
2022-09-01T01:56:09.713Z,21.80
2022-09-01T01:56:25.503Z,21.80
2022-09-01T01:56:39.801Z,21.80
2022-09-01T01:56:51.561Z,21.80
2022-09-01T01:57:04.496Z,21.80
2022-09-01T01:57:17.841Z,21.70
2022-09-01T01:57:33.007Z,21.80
2022-09-01T01:57:49.884Z,21.80
2022-09-01T01:58:01.598Z,21.80
2022-09-01T01:58:14.937Z,21.80
2022-09-01T01:58:28.838Z,21.80
2022-09-01T01:58:40.637Z,21.80
2022-09-01T01:58:56.435Z,21.80
2022-09-01T01:59:13.812Z,21.80
2022-09-01T01:59:26.621Z,21.80
2022-09-01T01:59:40.833Z,21.80
2022-09-01T01:59:53.993Z,21.80
2022-09-01T02:00:06.858Z,21.80
2022-09-01T02:00:28.375Z,21.80
2022-09-01T02:00:46.683Z,21.80
2022-09-01T02:00:59.003Z,21.70
2022-09-01T02:01:12.579Z,21.70
2022-09-01T02:01:29.020Z,21.70
2022-09-01T02:01:42.866Z,21.70
2022-09-01T02:01:54.699Z,21.70
2022-09-01T02:02:08.585Z,21.70
2022-09-01T02:02:20.425Z,21.70
2022-09-01T02:02:32.205Z,21.60
2022-09-01T02:02:43.949Z,21.60
2022-09-01T02:02:55.792Z,21.60
2022-09-01T02:03:07.581Z,21.60
2022-09-01T02:03:21.858Z,21.60
2022-09-01T02:03:38.524Z,21.60
2022-09-01T02:03:52.957Z,21.60
2022-09-01T02:04:05.711Z,21.60
2022-09-01T02:04:19.698Z,21.60
2022-09-01T02:04:34.160Z,21.60
2022-09-01T02:04:45.858Z,21.60
2022-09-01T02:04:57.729Z,21.60
2022-09-01T02:05:09.790Z,21.60
2022-09-01T02:05:26.635Z,21.60
2022-09-01T02:05:42.096Z,21.50
2022-09-01T02:05:54.489Z,21.50
2022-09-01T02:06:08.174Z,21.60
2022-09-01T02:06:21.153Z,21.50
2022-09-01T02:06:34.016Z,21.60
2022-09-01T02:06:46.271Z,21.60
2022-09-01T02:06:57.985Z,21.60
2022-09-01T02:07:11.952Z,21.50
2022-09-01T02:07:23.709Z,21.50
2022-09-01T02:07:35.388Z,21.50
2022-09-01T02:07:47.064Z,21.50
2022-09-01T02:08:06.956Z,21.50
2022-09-01T02:08:20.796Z,21.50
2022-09-01T02:08:34.152Z,21.50
2022-09-01T02:08:45.853Z,21.50
2022-09-01T02:08:58.049Z,21.50
2022-09-01T02:09:09.736Z,21.50
2022-09-01T02:09:23.261Z,21.50
2022-09-01T02:09:35.060Z,21.50
2022-09-01T02:09:48.184Z,21.50
2022-09-01T02:10:01.915Z,21.50
2022-09-01T02:10:14.033Z,21.50
2022-09-01T02:10:26.964Z,21.50
2022-09-01T02:10:42.111Z,21.50
2022-09-01T02:10:54.821Z,21.50
2022-09-01T02:11:07.115Z,21.50
2022-09-01T02:11:19.069Z,21.50
2022-09-01T02:11:33.423Z,21.50
2022-09-01T02:11:45.590Z,21.50
2022-09-01T02:11:58.438Z,21.50
2022-09-01T02:12:10.477Z,21.50
2022-09-01T02:12:25.136Z,21.50
2022-09-01T02:12:37.746Z,21.50
2022-09-01T02:12:49.843Z,21.50
2022-09-01T02:13:05.868Z,21.50
2022-09-01T02:13:18.524Z,21.50
2022-09-01T02:13:32.809Z,21.50
2022-09-01T02:13:45.016Z,21.50
2022-09-01T02:13:57.293Z,21.50
2022-09-01T02:14:09.418Z,21.50
2022-09-01T02:14:21.941Z,21.50
2022-09-01T02:14:33.793Z,21.50
2022-09-01T02:14:45.536Z,21.50
2022-09-01T02:14:57.314Z,21.50
2022-09-01T02:15:11.724Z,21.50
2022-09-01T02:15:23.728Z,21.50
2022-09-01T02:15:43.190Z,21.50
2022-09-01T02:15:56.004Z,21.50
2022-09-01T02:16:12.035Z,21.40
2022-09-01T02:16:28.911Z,21.40
2022-09-01T02:16:40.921Z,21.40
2022-09-01T02:16:56.038Z,21.50
2022-09-01T02:17:08.196Z,21.50
2022-09-01T02:17:21.214Z,21.50
2022-09-01T02:17:32.919Z,21.40
2022-09-01T02:17:44.984Z,21.40
2022-09-01T02:18:00.254Z,21.40
2022-09-01T02:18:19.940Z,21.40
2022-09-01T02:18:36.816Z,21.40
2022-09-01T02:18:48.578Z,21.40
2022-09-01T02:19:00.568Z,21.50
2022-09-01T02:19:12.282Z,21.40
2022-09-01T02:19:24.013Z,21.40
2022-09-01T02:19:43.194Z,21.40
2022-09-01T02:19:57.458Z,21.40
2022-09-01T02:20:10.450Z,21.40
2022-09-01T02:20:24.883Z,21.40
2022-09-01T02:20:36.721Z,21.40
2022-09-01T02:20:49.462Z,21.40
2022-09-01T02:21:01.865Z,21.40
2022-09-01T02:21:18.451Z,21.40
2022-09-01T02:21:30.444Z,21.40
2022-09-01T02:21:44.649Z,21.40
2022-09-01T02:21:56.576Z,21.40
2022-09-01T02:22:11.452Z,21.40
2022-09-01T02:22:23.199Z,21.40
2022-09-01T02:22:34.911Z,21.40
2022-09-01T02:22:46.605Z,21.40
2022-09-01T02:22:58.816Z,21.40
2022-09-01T02:23:11.526Z,21.40
2022-09-01T02:23:24.488Z,21.40
2022-09-01T02:23:36.491Z,21.40
2022-09-01T02:24:01.098Z,21.30
2022-09-01T02:24:12.898Z,21.40
2022-09-01T02:24:24.837Z,21.40
2022-09-01T02:24:37.819Z,21.40
2022-09-01T02:24:52.427Z,21.30
2022-09-01T02:25:05.838Z,21.30
2022-09-01T02:25:19.044Z,21.30
2022-09-01T02:25:31.894Z,21.30
2022-09-01T02:26:14.055Z,21.30
2022-09-01T02:26:19.007Z,21.40
2022-09-01T02:26:32.990Z,21.40
2022-09-01T02:26:47.366Z,21.40
2022-09-01T02:27:00.591Z,21.40
2022-09-01T02:27:12.352Z,21.40
2022-09-01T02:27:25.737Z,21.40
2022-09-01T02:27:39.554Z,21.40
2022-09-01T02:27:53.393Z,21.40
2022-09-01T02:28:09.529Z,21.30
2022-09-01T02:28:22.484Z,21.40
2022-09-01T02:28:37.024Z,21.30
2022-09-01T02:28:54.870Z,21.30
2022-09-01T02:29:17.802Z,21.30
2022-09-01T02:29:29.945Z,21.30
2022-09-01T02:29:45.056Z,21.30
2022-09-01T02:29:58.724Z,21.30
2022-09-01T02:30:11.184Z,21.30
2022-09-01T02:30:24.878Z,21.30
2022-09-01T02:30:37.889Z,21.30
2022-09-01T02:30:52.174Z,21.30
2022-09-01T02:31:05.987Z,21.20
2022-09-01T02:31:20.021Z,21.30
2022-09-01T02:31:35.673Z,21.30
2022-09-01T02:31:52.001Z,21.30
2022-09-01T02:32:03.704Z,21.30
2022-09-01T02:32:22.032Z,21.30
2022-09-01T02:32:33.726Z,21.30
2022-09-01T02:32:45.544Z,21.30
2022-09-01T02:32:58.645Z,21.30
2022-09-01T02:33:10.489Z,21.30
2022-09-01T02:33:22.495Z,21.30
2022-09-01T02:33:34.574Z,21.40
2022-09-01T02:33:47.038Z,21.40
2022-09-01T02:33:58.725Z,21.40
2022-09-01T02:34:13.993Z,21.40
2022-09-01T02:34:28.906Z,21.30
2022-09-01T02:34:40.600Z,21.40
2022-09-01T02:34:53.841Z,21.40
2022-09-01T02:35:09.668Z,21.30
2022-09-01T02:35:21.403Z,21.30
2022-09-01T02:35:34.279Z,21.40
2022-09-01T02:35:46.940Z,21.30
2022-09-01T02:36:00.342Z,21.40
2022-09-01T02:36:15.200Z,21.30
2022-09-01T02:36:26.962Z,21.30
2022-09-01T02:36:42.468Z,21.30
2022-09-01T02:36:54.849Z,21.30
2022-09-01T02:37:06.579Z,21.30
2022-09-01T02:37:18.266Z,21.30
2022-09-01T02:37:30.019Z,21.40
2022-09-01T02:37:43.372Z,21.40
2022-09-01T02:37:58.204Z,21.30
2022-09-01T02:38:09.969Z,21.30
2022-09-01T02:38:26.245Z,21.30
2022-09-01T02:38:42.902Z,21.30
2022-09-01T02:38:57.716Z,21.30
2022-09-01T02:39:11.122Z,21.30
2022-09-01T02:39:26.524Z,21.40
2022-09-01T02:39:38.290Z,21.30
2022-09-01T02:39:49.972Z,21.30
2022-09-01T02:40:02.073Z,21.30
2022-09-01T02:40:15.995Z,21.30
2022-09-01T02:40:31.337Z,21.30
2022-09-01T02:40:46.957Z,21.30
2022-09-01T02:40:58.864Z,21.30
2022-09-01T02:41:12.002Z,21.30
2022-09-01T02:41:25.013Z,21.30
2022-09-01T02:41:36.771Z,21.30
2022-09-01T02:41:49.334Z,21.30
2022-09-01T02:42:01.305Z,21.30
2022-09-01T02:42:16.275Z,21.30
2022-09-01T02:42:29.517Z,21.30
2022-09-01T02:42:43.387Z,21.30
2022-09-01T02:42:55.344Z,21.30
2022-09-01T02:43:08.405Z,21.30
2022-09-01T02:43:20.665Z,21.30
2022-09-01T02:43:32.456Z,21.30
2022-09-01T02:43:44.469Z,21.30
2022-09-01T02:43:56.943Z,21.20
2022-09-01T02:44:11.647Z,21.30
2022-09-01T02:44:23.387Z,21.30
2022-09-01T02:44:39.509Z,21.30
2022-09-01T02:44:55.008Z,21.30
2022-09-01T02:45:15.689Z,21.20
2022-09-01T02:45:29.006Z,21.20
2022-09-01T02:45:42.594Z,21.20
2022-09-01T02:45:57.611Z,21.20
2022-09-01T02:46:09.697Z,21.20
2022-09-01T02:46:24.253Z,21.20
2022-09-01T02:46:37.887Z,21.20
2022-09-01T02:46:50.148Z,21.20
2022-09-01T02:47:02.054Z,21.20
2022-09-01T02:47:14.080Z,21.10
2022-09-01T02:47:28.396Z,21.20
2022-09-01T02:47:45.589Z,21.20
2022-09-01T02:47:57.428Z,21.10
2022-09-01T02:48:10.863Z,21.20
2022-09-01T02:48:29.129Z,21.20
2022-09-01T02:48:42.707Z,21.10
2022-09-01T02:48:54.645Z,21.10
2022-09-01T02:49:08.646Z,21.10
2022-09-01T02:49:28.273Z,21.10
2022-09-01T02:49:40.764Z,21.10
2022-09-01T02:49:52.529Z,21.10
2022-09-01T02:50:04.473Z,21.10
2022-09-01T02:50:17.092Z,21.10
2022-09-01T02:50:29.195Z,21.10
2022-09-01T02:50:41.398Z,21.10
2022-09-01T02:50:53.998Z,21.10
2022-09-01T02:51:10.803Z,21.10
2022-09-01T02:51:25.590Z,21.10
2022-09-01T02:51:38.531Z,21.10
2022-09-01T02:51:53.897Z,21.10
2022-09-01T02:52:06.228Z,21.10
2022-09-01T02:52:20.597Z,21.10
2022-09-01T02:52:37.502Z,21.10
2022-09-01T02:52:50.029Z,21.10
2022-09-01T02:53:03.934Z,21.10
2022-09-01T02:53:16.366Z,21.10
2022-09-01T02:53:29.251Z,21.10
2022-09-01T02:53:42.677Z,21.10
2022-09-01T02:53:54.934Z,21.10
2022-09-01T02:54:06.644Z,21.10
2022-09-01T02:54:19.186Z,21.10
2022-09-01T02:54:31.725Z,21.10
2022-09-01T02:54:45.503Z,21.10
2022-09-01T02:54:57.759Z,21.10
2022-09-01T02:55:09.624Z,21.10
2022-09-01T02:55:22.765Z,21.10
2022-09-01T02:55:34.438Z,21.10
2022-09-01T02:55:46.195Z,21.00
2022-09-01T02:55:59.511Z,21.10
2022-09-01T02:56:14.491Z,21.10
2022-09-01T02:56:28.025Z,21.10
2022-09-01T02:56:39.798Z,21.10
2022-09-01T02:56:54.421Z,21.10
2022-09-01T02:57:09.020Z,21.10
2022-09-01T02:57:24.404Z,21.00
2022-09-01T02:57:36.137Z,21.00